Time;durP1;ratioP1;P1;durP2;ratioP2;P2;SDS_P1;SDS_P2;PMS_P1;PMS_P2;Temp;Humidity;BMP_temperature;BMP_pressure;BME280_temperature;BME280_humidity;BME280_pressure;Samples;Min_cycle;Max_cycle;Signal;HPM_P1;HPM_P2
2022/01/12 00:01:28;;;;;;;41.30;16.87;;;;;;;;;;5072842;28;20024;-91
2022/01/12 00:03:53;;;;;;;32.40;15.83;;;;;;;;;;5073117;28;20031;-91
2022/01/12 00:06:18;;;;;;;33.17;15.93;;;;;;;;;;5072938;28;20428;-92
2022/01/12 00:08:43;;;;;;;34.97;16.33;;;;;;;;;;5074224;28;20048;-92
2022/01/12 00:11:09;;;;;;;30.60;15.70;;;;;;;;;;5072873;28;20024;-90
2022/01/12 00:13:34;;;;;;;33.47;15.97;;;;;;;;;;5072982;28;20059;-91
2022/01/12 00:16:01;;;;;;;40.47;17.37;;;;;;;;;;5072925;28;20021;-90
2022/01/12 00:18:27;;;;;;;35.07;16.57;;;;;;;;;;5072785;28;20056;-92
2022/01/12 00:20:54;;;;;;;32.17;16.23;;;;;;;;;;5072735;28;20027;-92
2022/01/12 00:23:19;;;;;;;37.87;17.63;;;;;;;;;;5072770;28;20020;-90
2022/01/12 00:25:58;;;;;;;31.07;15.20;;;;;;;;;;5072607;28;20036;-91
2022/01/12 00:33:53;;;;;;;35.83;16.60;;;;;;;;;;5074139;28;20027;-92
2022/01/12 00:36:18;;;;;;;41.90;16.20;;;;;;;;;;5072496;28;20111;-91
2022/01/12 00:38:44;;;;;;;39.37;15.33;;;;;;;;;;5072663;28;20021;-91
2022/01/12 00:41:09;;;;;;;36.63;16.77;;;;;;;;;;5072760;28;20047;-90
2022/01/12 00:43:37;;;;;;;36.80;15.30;;;;;;;;;;5074453;28;20020;-91
2022/01/12 00:46:03;;;;;;;35.77;15.67;;;;;;;;;;5076407;28;20368;-90
2022/01/12 00:48:28;;;;;;;34.53;15.77;;;;;;;;;;5076442;28;20020;-91
2022/01/12 00:50:53;;;;;;;34.90;15.57;;;;;;;;;;5076456;28;20020;-91
2022/01/12 00:53:18;;;;;;;35.70;16.70;;;;;;;;;;5076374;28;20020;-91
2022/01/12 00:55:43;;;;;;;34.63;16.97;;;;;;;;;;5076247;28;20411;-91
2022/01/12 00:58:09;;;;;;;33.37;15.73;;;;;;;;;;5076170;28;20052;-92
2022/01/12 01:00:34;;;;;;;32.37;16.43;;;;;;;;;;5077496;28;20029;-91
2022/01/12 01:02:59;;;;;;;38.73;17.90;;;;;;;;;;5076131;28;20031;-90
2022/01/12 01:05:25;;;;;;;39.17;16.80;;;;;;;;;;5075933;28;20020;-91
2022/01/12 01:07:51;;;;;;;38.70;16.53;;;;;;;;;;5077225;28;20020;-91
2022/01/12 01:10:44;;;;;;;34.87;15.33;;;;;;;;;;5076225;28;20025;-91
2022/01/12 01:13:10;;;;;;;42.20;15.97;;;;;;;;;;5075604;28;20073;-90
2022/01/12 01:15:57;;;;;;;37.63;15.73;;;;;;;;;;5081666;28;20024;-91
2022/01/12 01:26:38;;;;;;;32.73;14.77;;;;;;;;;;5077467;28;20039;-91
2022/01/12 01:29:03;;;;;;;36.80;15.80;;;;;;;;;;5076782;28;20024;-92
2022/01/12 01:31:33;;;;;;;33.00;15.33;;;;;;;;;;5075619;28;20031;-91
2022/01/12 01:34:05;;;;;;;38.93;15.53;;;;;;;;;;5076268;28;20028;-90
2022/01/12 01:36:30;;;;;;;;;;;;;;;;;;5075837;28;20062;-91
2022/01/12 01:38:56;;;;;;;39.20;15.90;;;;;;;;;;5076528;28;19908;-90
2022/01/12 01:41:21;;;;;;;34.60;15.07;;;;;;;;;;5075357;28;20021;-90
2022/01/12 01:44:34;;;;;;;38.27;15.77;;;;;;;;;;5075353;28;20107;-91
2022/01/12 01:55:06;;;;;;;29.07;14.17;;;;;;;;;;5075791;28;20104;-91
2022/01/12 01:57:32;;;;;;;38.27;15.23;;;;;;;;;;5074860;28;20460;-91
2022/01/12 01:59:57;;;;;;;36.67;15.63;;;;;;;;;;5073946;28;20063;-91
2022/01/12 02:02:23;;;;;;;34.03;15.23;;;;;;;;;;5074260;28;20028;-91
2022/01/12 02:04:48;;;;;;;32.23;14.67;;;;;;;;;;5074413;28;20021;-91
2022/01/12 02:07:14;;;;;;;37.87;15.13;;;;;;;;;;5073957;28;20016;-90
2022/01/12 02:09:39;;;;;;;32.73;13.93;;;;;;;;;;5075147;28;20365;-91
2022/01/12 02:12:05;;;;;;;27.00;13.40;;;;;;;;;;5074122;28;20032;-91
2022/01/12 02:14:30;;;;;;;28.47;12.97;;;;;;;;;;5075254;28;20028;-91
2022/01/12 02:17:12;;;;;;;30.37;13.70;;;;;;;;;;5074093;28;20079;-91
2022/01/12 02:36:12;;;;;;;31.63;13.93;;;;;;;;;;5095879;28;20039;-91
2022/01/12 02:41:21;;;;;;;28.30;13.00;;;;;;;;;;5080239;28;20032;-91
2022/01/12 02:54:42;;;;;;;30.50;14.13;;;;;;;;;;5075286;28;20046;-91
2022/01/12 02:57:07;;;;;;;36.00;14.60;;;;;;;;;;5073519;28;20541;-91
2022/01/12 02:59:32;;;;;;;31.87;13.33;;;;;;;;;;5073698;28;20028;-92
2022/01/12 03:05:21;;;;;;;29.80;13.23;;;;;;;;;;5065862;28;20028;-91
2022/01/12 03:07:39;;;;;;;33.37;13.83;;;;;;;;;;5074290;28;20088;-91
2022/01/12 03:10:05;;;;;;;29.90;14.20;;;;;;;;;;5073269;28;20543;-91
2022/01/12 03:12:31;;;;;;;34.80;13.57;;;;;;;;;;5073718;28;20059;-91
2022/01/12 03:14:56;;;;;;;32.17;13.87;;;;;;;;;;5073496;28;20403;-91
2022/01/12 03:17:24;;;;;;;30.47;13.83;;;;;;;;;;5074056;28;20017;-91
2022/01/12 03:19:49;;;;;;;32.53;14.93;;;;;;;;;;5073444;28;20075;-91
2022/01/12 03:22:15;;;;;;;30.03;14.17;;;;;;;;;;5073307;28;20555;-91
2022/01/12 03:24:42;;;;;;;27.10;13.20;;;;;;;;;;5073301;28;20016;-91
2022/01/12 03:27:12;;;;;;;31.53;14.20;;;;;;;;;;5073302;28;20017;-91
2022/01/12 03:29:41;;;;;;;30.23;13.43;;;;;;;;;;5073359;28;20535;-91
2022/01/12 03:32:06;;;;;;;35.93;15.53;;;;;;;;;;5073260;28;20080;-91
2022/01/12 03:34:34;;;;;;;34.50;14.10;;;;;;;;;;5073026;28;20055;-91
2022/01/12 03:37:39;;;;;;;31.80;13.80;;;;;;;;;;5073129;28;20074;-91
2022/01/12 03:40:03;;;;;;;36.03;14.10;;;;;;;;;;5074189;28;20020;-91
2022/01/12 03:42:28;;;;;;;30.73;13.40;;;;;;;;;;5072856;28;20024;-91
2022/01/12 03:44:53;;;;;;;34.40;13.87;;;;;;;;;;5073046;28;20024;-92
2022/01/12 03:47:19;;;;;;;32.73;14.20;;;;;;;;;;5072920;28;20522;-91
2022/01/12 03:49:44;;;;;;;31.47;14.33;;;;;;;;;;5072927;28;20020;-91
2022/01/12 03:52:09;;;;;;;34.43;14.30;;;;;;;;;;5073180;28;20025;-91
2022/01/12 03:54:34;;;;;;;27.97;13.63;;;;;;;;;;5073001;28;20016;-90
2022/01/12 03:57:00;;;;;;;35.03;14.77;;;;;;;;;;5073057;28;20028;-91
2022/01/12 03:59:25;;;;;;;29.90;12.77;;;;;;;;;;5072792;28;20165;-91
2022/01/12 04:01:50;;;;;;;33.53;14.20;;;;;;;;;;5072611;28;20374;-91
2022/01/12 04:04:24;;;;;;;30.10;13.13;;;;;;;;;;5073977;28;20101;-91
2022/01/12 04:09:33;;;;;;;33.57;14.37;;;;;;;;;;5074156;28;20565;-91
2022/01/12 04:11:58;;;;;;;33.33;13.63;;;;;;;;;;5073736;28;20024;-91
2022/01/12 04:14:23;;;;;;;31.93;15.37;;;;;;;;;;5072855;28;20074;-91
2022/01/12 04:16:48;;;;;;;39.33;16.43;;;;;;;;;;5072909;28;20071;-91
2022/01/12 04:19:14;;;;;;;35.50;15.60;;;;;;;;;;5075967;28;20051;-91
2022/01/12 04:21:46;;;;;;;33.60;16.00;;;;;;;;;;5076923;28;20376;-91
2022/01/12 04:24:13;;;;;;;37.40;15.57;;;;;;;;;;5076964;28;20487;-91
2022/01/12 04:26:38;;;;;;;35.73;15.30;;;;;;;;;;5076980;28;20152;-91
2022/01/12 04:29:04;;;;;;;35.73;16.27;;;;;;;;;;5078157;28;20048;-91
2022/01/12 04:31:29;;;;;;;36.47;15.50;;;;;;;;;;5076869;28;20024;-91
2022/01/12 04:33:55;;;;;;;46.23;17.27;;;;;;;;;;5076744;28;20016;-91
2022/01/12 04:36:20;;;;;;;33.47;15.83;;;;;;;;;;5076435;28;20036;-91
2022/01/12 04:38:45;;;;;;;35.60;14.30;;;;;;;;;;5076689;28;20043;-91
2022/01/12 04:41:11;;;;;;;44.50;16.77;;;;;;;;;;5076651;28;20024;-91
2022/01/12 04:43:39;;;;;;;42.27;17.23;;;;;;;;;;5076531;28;20017;-91
2022/01/12 04:48:34;;;;;;;40.47;17.63;;;;;;;;;;5077606;28;20037;-91
2022/01/12 04:51:00;;;;;;;38.07;17.27;;;;;;;;;;5076379;28;20483;-91
2022/01/12 04:53:25;;;;;;;40.27;17.07;;;;;;;;;;5076342;28;20017;-92
2022/01/12 04:55:51;;;;;;;39.47;17.13;;;;;;;;;;5076213;28;20028;-91
2022/01/12 04:58:17;;;;;;;33.20;15.63;;;;;;;;;;5076178;28;20024;-91
2022/01/12 05:00:43;;;;;;;38.70;16.70;;;;;;;;;;5076190;28;20017;-92
2022/01/12 05:13:55;;;;;;;40.20;17.23;;;;;;;;;;5077469;28;20388;-92
2022/01/12 05:16:21;;;;;;;36.83;16.87;;;;;;;;;;5077125;28;20021;-91
2022/01/12 05:18:47;;;;;;;35.43;16.23;;;;;;;;;;5075700;28;20025;-92
2022/01/12 05:21:13;;;;;;;38.67;16.27;;;;;;;;;;5086676;28;20020;-92
2022/01/12 05:23:38;;;;;;;36.63;15.20;;;;;;;;;;5075733;28;20029;-91
2022/01/12 05:26:04;;;;;;;36.37;15.43;;;;;;;;;;5075825;28;20027;-91
2022/01/12 05:28:29;;;;;;;35.70;15.27;;;;;;;;;;5076722;28;20021;-92
2022/01/12 05:30:55;;;;;;;36.97;16.33;;;;;;;;;;5075791;28;20143;-91
2022/01/12 05:33:22;;;;;;;40.40;16.90;;;;;;;;;;5075619;28;20024;-92
2022/01/12 05:35:48;;;;;;;43.60;17.23;;;;;;;;;;5075555;28;20040;-91
2022/01/12 05:38:14;;;;;;;42.83;17.27;;;;;;;;;;5075520;28;20036;-91
2022/01/12 05:40:40;;;;;;;41.70;16.80;;;;;;;;;;5075153;28;20066;-91
2022/01/12 05:43:06;;;;;;;40.23;16.77;;;;;;;;;;5076510;28;20095;-91
2022/01/12 05:45:33;;;;;;;38.27;15.20;;;;;;;;;;5075363;28;20044;-91
2022/01/12 05:50:24;;;;;;;31.80;14.67;;;;;;;;;;5076826;28;20024;-92
2022/01/12 05:52:49;;;;;;;33.30;14.43;;;;;;;;;;5075332;28;20142;-91
2022/01/12 05:55:15;;;;;;;37.73;14.73;;;;;;;;;;5075235;28;20104;-92
2022/01/12 05:57:40;;;;;;;35.40;14.87;;;;;;;;;;5074978;28;20487;-91
2022/01/12 06:00:07;;;;;;;30.20;13.57;;;;;;;;;;5075020;28;20392;-91
2022/01/12 06:02:32;;;;;;;36.80;17.60;;;;;;;;;;5082081;28;20478;-92
2022/01/12 06:04:57;;;;;;;38.90;17.07;;;;;;;;;;5085594;28;20074;-91
2022/01/12 06:07:26;;;;;;;36.83;16.27;;;;;;;;;;5089464;28;20073;-92
2022/01/12 06:09:51;;;;;;;37.50;16.80;;;;;;;;;;5081152;28;20536;-92
2022/01/12 06:12:17;;;;;;;36.87;15.73;;;;;;;;;;5095080;28;20016;-91
2022/01/12 06:14:42;;;;;;;35.27;14.93;;;;;;;;;;5094893;28;20024;-90
2022/01/12 06:17:08;;;;;;;37.47;16.23;;;;;;;;;;5094821;28;20054;-91
2022/01/12 06:19:33;;;;;;;39.17;15.90;;;;;;;;;;5081800;28;20472;-90
2022/01/12 06:21:58;;;;;;;43.73;16.47;;;;;;;;;;5074452;28;20479;-91
2022/01/12 06:24:23;;;;;;;38.23;16.13;;;;;;;;;;5074323;28;20020;-92
2022/01/12 06:26:49;;;;;;;37.70;16.73;;;;;;;;;;5074506;28;20103;-91
2022/01/12 06:29:25;;;;;;;35.70;15.43;;;;;;;;;;5074255;28;20082;-90
2022/01/12 06:31:52;;;;;;;44.37;16.40;;;;;;;;;;5074438;28;20433;-90
2022/01/12 06:34:17;;;;;;;42.57;16.43;;;;;;;;;;5074308;28;20023;-90
2022/01/12 06:36:42;;;;;;;46.10;18.23;;;;;;;;;;5074066;28;20040;-91
2022/01/12 06:39:09;;;;;;;42.90;17.13;;;;;;;;;;5074110;28;20017;-90
2022/01/12 06:41:35;;;;;;;42.23;17.53;;;;;;;;;;5073565;28;20377;-91
2022/01/12 06:44:00;;;;;;;43.83;15.97;;;;;;;;;;5073996;28;20031;-91
2022/01/12 06:46:29;;;;;;;46.10;18.60;;;;;;;;;;5073985;28;20021;-90
2022/01/12 06:48:54;;;;;;;43.70;17.53;;;;;;;;;;5075319;28;20034;-91
2022/01/12 06:51:20;;;;;;;49.97;18.40;;;;;;;;;;5073947;28;20107;-90
2022/01/12 06:53:45;;;;;;;41.00;18.30;;;;;;;;;;5073619;28;20040;-91
2022/01/12 06:56:10;;;;;;;40.67;17.27;;;;;;;;;;5073734;28;20043;-91
2022/01/12 06:58:35;;;;;;;43.77;17.30;;;;;;;;;;5070617;28;20020;-89
2022/01/12 07:01:01;;;;;;;41.53;17.13;;;;;;;;;;5072965;28;20050;-89
2022/01/12 07:03:26;;;;;;;38.47;16.77;;;;;;;;;;5073215;28;20448;-89
2022/01/12 07:05:51;;;;;;;41.40;17.30;;;;;;;;;;5074511;28;20024;-90
2022/01/12 07:08:16;;;;;;;42.07;17.20;;;;;;;;;;5091544;28;20024;-89
2022/01/12 07:10:42;;;;;;;40.00;16.47;;;;;;;;;;5082856;28;20016;-88
2022/01/12 07:13:10;;;;;;;39.80;15.47;;;;;;;;;;5073469;28;20020;-92
2022/01/12 07:15:36;;;;;;;42.60;16.03;;;;;;;;;;5073088;28;20031;-90
2022/01/12 07:18:02;;;;;;;44.37;17.90;;;;;;;;;;5081435;28;20016;-91
2022/01/12 07:20:27;;;;;;;47.03;18.60;;;;;;;;;;5069723;28;20472;-90
2022/01/12 07:22:53;;;;;;;45.87;18.20;;;;;;;;;;5073282;28;20024;-91
2022/01/12 07:25:18;;;;;;;52.77;19.03;;;;;;;;;;5073414;28;20052;-93
2022/01/12 07:27:43;;;;;;;54.17;21.63;;;;;;;;;;5071813;28;20044;-92
2022/01/12 07:30:09;;;;;;;56.03;21.53;;;;;;;;;;5073072;28;20031;-93
2022/01/12 07:32:34;;;;;;;48.80;18.47;;;;;;;;;;5073353;28;20472;-92
2022/01/12 07:34:59;;;;;;;47.00;18.33;;;;;;;;;;5074518;28;20464;-92
2022/01/12 07:37:24;;;;;;;47.03;18.73;;;;;;;;;;5073273;28;20468;-93
2022/01/12 07:39:49;;;;;;;47.40;21.03;;;;;;;;;;5073388;28;20364;-94
2022/01/12 07:42:15;;;;;;;47.67;18.57;;;;;;;;;;5072919;28;20173;-92
2022/01/12 07:44:40;;;;;;;47.17;17.73;;;;;;;;;;5073132;28;20430;-91
2022/01/12 07:47:05;;;;;;;48.43;18.70;;;;;;;;;;5079683;28;20525;-91
2022/01/12 07:49:31;;;;;;;50.20;19.90;;;;;;;;;;5075461;28;20016;-92
2022/01/12 07:51:57;;;;;;;50.00;20.27;;;;;;;;;;5072347;28;20128;-92
2022/01/12 07:54:22;;;;;;;52.17;19.37;;;;;;;;;;5077807;28;20012;-91
2022/01/12 07:56:47;;;;;;;54.03;21.17;;;;;;;;;;5083414;28;20380;-92
2022/01/12 07:59:12;;;;;;;46.37;20.53;;;;;;;;;;5072190;28;20032;-91
2022/01/12 08:01:37;;;;;;;50.93;21.17;;;;;;;;;;5072491;28;20043;-91
2022/01/12 08:04:03;;;;;;;54.30;21.30;;;;;;;;;;5061144;28;20545;-92
2022/01/12 08:06:28;;;;;;;57.23;21.03;;;;;;;;;;5082041;28;20021;-92
2022/01/12 08:08:53;;;;;;;56.60;21.43;;;;;;;;;;5081091;28;20051;-92
2022/01/12 08:11:18;;;;;;;56.87;20.73;;;;;;;;;;5073278;28;20024;-92
2022/01/12 08:13:45;;;;;;;62.90;22.97;;;;;;;;;;5090205;28;20020;-93
2022/01/12 08:16:10;;;;;;;55.30;21.80;;;;;;;;;;5072226;28;20025;-93
2022/01/12 08:18:35;;;;;;;55.00;22.23;;;;;;;;;;5089727;28;20701;-93
2022/01/12 08:21:03;;;;;;;63.53;21.67;;;;;;;;;;5072395;28;20028;-91
2022/01/12 08:23:28;;;;;;;57.57;21.53;;;;;;;;;;5080672;28;20027;-92
2022/01/12 08:25:53;;;;;;;62.10;22.83;;;;;;;;;;5072494;28;20107;-93
2022/01/12 08:28:18;;;;;;;65.53;22.63;;;;;;;;;;5069825;28;20017;-91
2022/01/12 08:30:44;;;;;;;63.73;22.07;;;;;;;;;;5071866;28;20708;-90
2022/01/12 08:33:11;;;;;;;56.07;21.40;;;;;;;;;;5071582;28;20107;-92
2022/01/12 08:35:36;;;;;;;64.50;21.17;;;;;;;;;;5071002;28;20032;-90
2022/01/12 08:38:01;;;;;;;55.67;21.53;;;;;;;;;;5077792;28;20021;-90
2022/01/12 08:40:27;;;;;;;58.00;22.10;;;;;;;;;;5071488;28;20016;-90
2022/01/12 08:42:52;;;;;;;55.00;22.07;;;;;;;;;;5072050;28;20023;-90
2022/01/12 08:45:18;;;;;;;55.40;19.97;;;;;;;;;;5071209;28;20073;-91
2022/01/12 08:47:43;;;;;;;63.30;21.67;;;;;;;;;;5071764;28;20404;-92
2022/01/12 08:50:09;;;;;;;58.63;21.77;;;;;;;;;;5071257;28;20016;-92
2022/01/12 08:52:35;;;;;;;64.43;21.50;;;;;;;;;;5071685;28;20418;-90
2022/01/12 08:55:00;;;;;;;60.77;22.10;;;;;;;;;;5072133;28;20028;-91
2022/01/12 08:57:29;;;;;;;63.30;21.00;;;;;;;;;;5079479;28;20016;-91
2022/01/12 08:59:54;;;;;;;64.70;20.60;;;;;;;;;;5083272;28;20042;-91
2022/01/12 09:02:20;;;;;;;61.17;20.73;;;;;;;;;;5071977;28;20021;-91
2022/01/12 09:04:45;;;;;;;56.73;20.40;;;;;;;;;;5073681;28;20028;-91
2022/01/12 09:07:10;;;;;;;46.23;15.00;;;;;;;;;;5078100;28;21455;-91
2022/01/12 09:09:36;;;;;;;55.40;20.70;;;;;;;;;;5087033;28;20023;-91
2022/01/12 09:12:03;;;;;;;61.23;21.83;;;;;;;;;;5075848;28;20054;-90
2022/01/12 09:14:29;;;;;;;60.80;21.97;;;;;;;;;;5075851;28;20020;-90
2022/01/12 09:16:54;;;;;;;65.50;22.60;;;;;;;;;;5075732;28;20111;-90
2022/01/12 09:19:20;;;;;;;68.63;22.27;;;;;;;;;;5075598;28;20024;-91
2022/01/12 09:21:45;;;;;;;70.53;25.13;;;;;;;;;;5075561;28;20031;-90
2022/01/12 09:24:10;;;;;;;66.60;25.43;;;;;;;;;;5075875;28;20051;-90
2022/01/12 09:26:36;;;;;;;70.17;24.03;;;;;;;;;;5075545;28;20017;-91
2022/01/12 09:29:02;;;;;;;64.90;23.73;;;;;;;;;;5075111;28;20372;-90
2022/01/12 09:31:27;;;;;;;73.10;25.30;;;;;;;;;;5075437;28;20464;-90
2022/01/12 09:33:52;;;;;;;74.10;25.57;;;;;;;;;;5075495;28;20043;-89
2022/01/12 09:36:18;;;;;;;67.97;24.17;;;;;;;;;;5075215;28;20095;-91
2022/01/12 09:38:43;;;;;;;73.00;25.00;;;;;;;;;;5075118;28;20035;-90
2022/01/12 09:41:08;;;;;;;68.50;24.67;;;;;;;;;;5075375;28;20021;-91
2022/01/12 09:43:36;;;;;;;69.67;22.83;;;;;;;;;;5075341;28;20022;-91
2022/01/12 09:46:03;;;;;;;66.43;23.87;;;;;;;;;;5074936;28;20023;-91
2022/01/12 09:48:33;;;;;;;68.50;22.30;;;;;;;;;;5084016;28;20017;-90
2022/01/12 09:51:01;;;;;;;70.40;25.27;;;;;;;;;;5095569;28;20132;-90
2022/01/12 09:53:29;;;;;;;69.90;25.57;;;;;;;;;;5091676;28;20031;-91
2022/01/12 09:55:54;;;;;;;73.80;24.17;;;;;;;;;;5087912;28;20028;-92
2022/01/12 09:58:19;;;;;;;66.70;23.53;;;;;;;;;;5074854;28;20024;-91
2022/01/12 10:00:58;;;;;;;71.33;24.30;;;;;;;;;;5074975;28;20030;-90
2022/01/12 10:03:23;;;;;;;73.50;24.93;;;;;;;;;;5075081;28;20360;-91
2022/01/12 10:05:49;;;;;;;68.90;24.80;;;;;;;;;;5074817;28;20021;-90
2022/01/12 10:08:15;;;;;;;71.70;25.50;;;;;;;;;;5074924;28;20070;-91
2022/01/12 10:10:41;;;;;;;73.90;24.37;;;;;;;;;;5074707;28;20040;-91
2022/01/12 10:13:16;;;;;;;74.60;24.80;;;;;;;;;;5074987;28;20474;-91
2022/01/12 10:15:42;;;;;;;67.63;24.23;;;;;;;;;;5073836;28;20158;-90
2022/01/12 10:18:07;;;;;;;64.40;23.50;;;;;;;;;;5074733;28;20048;-91
2022/01/12 10:20:42;;;;;;;77.73;24.40;;;;;;;;;;5074688;28;20025;-91
2022/01/12 10:23:10;;;;;;;69.20;23.20;;;;;;;;;;5074593;28;20055;-90
2022/01/12 10:25:36;;;;;;;74.30;23.83;;;;;;;;;;5074481;28;20017;-91
2022/01/12 10:28:11;;;;;;;71.10;23.60;;;;;;;;;;5074355;28;20020;-91
2022/01/12 10:30:37;;;;;;;75.60;23.73;;;;;;;;;;5075532;28;20020;-90
2022/01/12 10:33:04;;;;;;;72.63;25.03;;;;;;;;;;5074218;28;20383;-90
2022/01/12 10:35:30;;;;;;;72.67;26.23;;;;;;;;;;5074202;28;20103;-90
2022/01/12 10:38:05;;;;;;;79.70;27.27;;;;;;;;;;5074129;28;20136;-90
2022/01/12 10:40:41;;;;;;;87.53;26.07;;;;;;;;;;5074257;28;20028;-91
2022/01/12 10:43:23;;;;;;;77.30;24.40;;;;;;;;;;5074118;28;20525;-90
2022/01/12 10:45:48;;;;;;;80.03;25.30;;;;;;;;;;5074168;28;20017;-91
2022/01/12 10:48:14;;;;;;;74.87;23.97;;;;;;;;;;5074435;28;20036;-92
2022/01/12 10:50:39;;;;;;;97.20;27.70;;;;;;;;;;5074076;28;20016;-91
2022/01/12 10:53:04;;;;;;;81.03;25.77;;;;;;;;;;5074097;28;20464;-91
2022/01/12 10:55:29;;;;;;;83.27;26.93;;;;;;;;;;5074013;28;20411;-90
2022/01/12 10:57:58;;;;;;;97.30;29.00;;;;;;;;;;5073922;28;20024;-91
2022/01/12 11:00:26;;;;;;;86.43;26.30;;;;;;;;;;5073804;28;20042;-90
2022/01/12 11:02:58;;;;;;;87.93;29.37;;;;;;;;;;5074885;28;20028;-90
2022/01/12 11:05:23;;;;;;;;;;;;;;;;;;5074195;28;20071;-90
2022/01/12 11:07:49;;;;;;;90.27;27.10;;;;;;;;;;5073596;28;19957;-90
2022/01/12 11:10:14;;;;;;;94.93;27.43;;;;;;;;;;5073408;28;20303;-89
2022/01/12 11:12:40;;;;;;;86.47;26.07;;;;;;;;;;5073622;28;20028;-91
2022/01/12 11:15:09;;;;;;;105.77;30.17;;;;;;;;;;5073404;28;20464;-90
2022/01/12 11:17:34;;;;;;;95.37;29.63;;;;;;;;;;5073461;28;20039;-90
2022/01/12 11:20:05;;;;;;;83.57;27.50;;;;;;;;;;5073316;28;20021;-90
2022/01/12 11:22:38;;;;;;;86.93;27.13;;;;;;;;;;5073385;28;20047;-90
2022/01/12 11:25:04;;;;;;;97.33;28.97;;;;;;;;;;5073329;28;20054;-91
2022/01/12 11:27:29;;;;;;;84.50;27.27;;;;;;;;;;5073325;28;20115;-90
2022/01/12 11:29:54;;;;;;;91.60;27.40;;;;;;;;;;5073300;28;20024;-90
2022/01/12 11:32:23;;;;;;;105.17;28.07;;;;;;;;;;5073259;28;20055;-91
2022/01/12 11:34:58;;;;;;;87.37;27.77;;;;;;;;;;5073273;28;20056;-91
2022/01/12 11:37:23;;;;;;;87.00;26.97;;;;;;;;;;5073723;28;20087;-91
2022/01/12 11:39:48;;;;;;;99.53;27.03;;;;;;;;;;5077173;28;20063;-91
2022/01/12 11:42:14;;;;;;;87.40;26.33;;;;;;;;;;5073151;28;20024;-91
2022/01/12 11:44:39;;;;;;;90.30;27.63;;;;;;;;;;5072992;28;20052;-91
2022/01/12 11:47:10;;;;;;;96.10;30.23;;;;;;;;;;5074034;28;20025;-90
2022/01/12 11:49:42;;;;;;;93.70;28.27;;;;;;;;;;5074135;28;20063;-90
2022/01/12 11:52:16;;;;;;;88.10;27.88;;;;;;;;;;5073074;28;20415;-91
2022/01/12 11:54:45;;;;;;;89.77;25.70;;;;;;;;;;5087196;28;20024;-91
2022/01/12 11:57:13;;;;;;;83.63;26.17;;;;;;;;;;5093253;28;20020;-90
2022/01/12 11:59:49;;;;;;;94.13;26.83;;;;;;;;;;5093035;28;20020;-92
2022/01/12 12:02:14;;;;;;;90.37;26.23;;;;;;;;;;5093069;28;20015;-91
2022/01/12 12:04:51;;;;;;;86.57;25.93;;;;;;;;;;5093091;28;20387;-90
2022/01/12 12:07:17;;;;;;;89.20;25.17;;;;;;;;;;5092732;28;20020;-91
2022/01/12 12:09:48;;;;;;;93.77;26.97;;;;;;;;;;5093149;28;20359;-91
2022/01/12 12:12:14;;;;;;;89.82;27.65;;;;;;;;;;5092924;28;20031;-91
2022/01/12 12:14:39;;;;;;;100.80;28.03;;;;;;;;;;5092724;28;20020;-90
2022/01/12 12:17:05;;;;;;;93.17;26.83;;;;;;;;;;5079988;28;20066;-90
2022/01/12 12:19:33;;;;;;;95.97;27.93;;;;;;;;;;5072604;28;20112;-90
2022/01/12 12:21:58;;;;;;;92.07;27.73;;;;;;;;;;5072804;28;20426;-91
2022/01/12 12:24:24;;;;;;;108.67;30.37;;;;;;;;;;5072536;28;20020;-91
2022/01/12 12:26:54;;;;;;;99.13;28.47;;;;;;;;;;5072639;28;20048;-90
2022/01/12 12:29:25;;;;;;;85.90;26.37;;;;;;;;;;5072959;28;20023;-90
2022/01/12 12:31:51;;;;;;;100.40;29.33;;;;;;;;;;5072405;28;20028;-91
2022/01/12 12:34:16;;;;;;;91.03;26.37;;;;;;;;;;5072608;28;20384;-90
2022/01/12 12:36:42;;;;;;;98.23;28.43;;;;;;;;;;5072469;28;20587;-91
2022/01/12 12:39:08;;;;;;;106.97;29.83;;;;;;;;;;5073857;28;20027;-90
2022/01/12 12:41:44;;;;;;;92.10;27.27;;;;;;;;;;5077441;28;20027;-90
2022/01/12 12:44:20;;;;;;;90.60;24.80;;;;;;;;;;5077553;28;20020;-90
2022/01/12 12:46:46;;;;;;;83.10;24.90;;;;;;;;;;5076283;28;20380;-91
2022/01/12 12:49:11;;;;;;;79.57;23.67;;;;;;;;;;5076417;28;20025;-90
2022/01/12 12:51:38;;;;;;;70.80;22.63;;;;;;;;;;5076339;28;20028;-91
2022/01/12 12:54:03;;;;;;;77.90;24.07;;;;;;;;;;5076160;28;20737;-91
2022/01/12 12:56:29;;;;;;;75.97;24.60;;;;;;;;;;5076157;28;20028;-90
2022/01/12 12:58:56;;;;;;;79.27;24.33;;;;;;;;;;5076285;28;20440;-91
2022/01/12 13:01:22;;;;;;;76.37;24.43;;;;;;;;;;5076116;28;20019;-91
2022/01/12 13:03:49;;;;;;;67.77;22.63;;;;;;;;;;5075878;28;20017;-90
2022/01/12 13:06:29;;;;;;;67.83;22.33;;;;;;;;;;5076057;28;20093;-90
2022/01/12 13:08:55;;;;;;;72.33;22.87;;;;;;;;;;5077036;28;20486;-91
2022/01/12 13:11:27;;;;;;;81.70;24.10;;;;;;;;;;5075894;28;20048;-90
2022/01/12 13:14:00;;;;;;;91.20;24.00;;;;;;;;;;5076268;28;20020;-90
2022/01/12 13:16:26;;;;;;;71.67;22.67;;;;;;;;;;5075907;28;20028;-91
2022/01/12 13:18:52;;;;;;;67.07;22.07;;;;;;;;;;5075783;28;20021;-91
2022/01/12 13:21:17;;;;;;;80.33;22.53;;;;;;;;;;5076863;28;20013;-90
2022/01/12 13:23:43;;;;;;;114.13;25.73;;;;;;;;;;5075675;28;20065;-90
2022/01/12 13:26:09;;;;;;;66.23;21.33;;;;;;;;;;5075561;28;20349;-90
2022/01/12 13:28:35;;;;;;;72.10;22.17;;;;;;;;;;5075630;28;20526;-90
2022/01/12 13:31:02;;;;;;;66.90;22.00;;;;;;;;;;5076609;28;20029;-90
2022/01/12 13:33:32;;;;;;;64.53;22.43;;;;;;;;;;5075544;28;20027;-91
2022/01/12 13:35:58;;;;;;;75.03;22.20;;;;;;;;;;5075392;28;20028;-91
2022/01/12 13:38:25;;;;;;;77.60;22.17;;;;;;;;;;5078570;28;20051;-90
2022/01/12 13:40:55;;;;;;;78.13;21.77;;;;;;;;;;5075429;28;20020;-91
2022/01/12 13:43:20;;;;;;;66.90;21.47;;;;;;;;;;5075158;28;20472;-90
2022/01/12 13:45:49;;;;;;;70.27;22.57;;;;;;;;;;5075368;28;20111;-90
2022/01/12 13:48:17;;;;;;;75.13;23.90;;;;;;;;;;5075393;28;20021;-91
2022/01/12 13:50:52;;;;;;;65.00;22.20;;;;;;;;;;5073870;28;20074;-90
2022/01/12 13:53:18;;;;;;;65.67;21.13;;;;;;;;;;5075265;28;20013;-90
2022/01/12 13:55:51;;;;;;;75.27;24.20;;;;;;;;;;5074760;28;20416;-90
2022/01/12 13:58:16;;;;;;;65.53;21.77;;;;;;;;;;5075029;28;20048;-91
2022/01/12 14:00:41;;;;;;;72.70;23.03;;;;;;;;;;5074940;28;20055;-91
2022/01/12 14:03:14;;;;;;;79.70;23.47;;;;;;;;;;5076261;28;20021;-90
2022/01/12 14:05:39;;;;;;;;;;;;;;;;;;5076515;28;20048;-90
2022/01/12 14:08:11;;;;;;;57.07;20.10;;;;;;;;;;5075311;28;19968;-91
2022/01/12 14:10:36;;;;;;;64.60;21.60;;;;;;;;;;5066385;28;20017;-90
2022/01/12 14:13:02;;;;;;;69.63;21.00;;;;;;;;;;5054913;28;20037;-90
2022/01/12 14:15:33;;;;;;;57.03;20.03;;;;;;;;;;5054562;28;20496;-90
2022/01/12 14:17:59;;;;;;;71.00;20.50;;;;;;;;;;5071663;28;20017;-91
2022/01/12 14:20:31;;;;;;;65.80;21.87;;;;;;;;;;5066048;28;20039;-90
2022/01/12 14:23:00;;;;;;;81.80;23.40;;;;;;;;;;5074649;28;20388;-90
2022/01/12 14:25:37;;;;;;;67.70;20.07;;;;;;;;;;5074950;28;20017;-91
2022/01/12 14:28:03;;;;;;;61.60;20.90;;;;;;;;;;5074592;28;20392;-90
2022/01/12 14:30:29;;;;;;;72.93;21.50;;;;;;;;;;5074352;28;20020;-91
2022/01/12 14:32:54;;;;;;;65.40;20.80;;;;;;;;;;5074110;28;20066;-90
2022/01/12 14:35:21;;;;;;;77.90;23.57;;;;;;;;;;5074240;28;20024;-90
2022/01/12 14:37:47;;;;;;;68.73;21.27;;;;;;;;;;5074390;28;20029;-90
2022/01/12 14:40:13;;;;;;;72.40;21.67;;;;;;;;;;5073997;28;20078;-90
2022/01/12 14:42:48;;;;;;;78.37;24.27;;;;;;;;;;5074111;28;20099;-90
2022/01/12 14:45:15;;;;;;;62.37;19.90;;;;;;;;;;5073946;28;20020;-90
2022/01/12 14:47:40;;;;;;;72.43;21.83;;;;;;;;;;5074197;28;20021;-90
2022/01/12 14:50:06;;;;;;;76.47;22.07;;;;;;;;;;5074138;28;20023;-90
2022/01/12 14:52:32;;;;;;;69.50;21.30;;;;;;;;;;5074037;28;20020;-90
2022/01/12 14:54:57;;;;;;;72.20;19.73;;;;;;;;;;5073866;28;20052;-90
2022/01/12 14:57:22;;;;;;;58.20;19.50;;;;;;;;;;5090586;28;20036;-91
2022/01/12 14:59:47;;;;;;;66.50;20.53;;;;;;;;;;5093384;28;20016;-90
2022/01/12 15:02:13;;;;;;;56.37;18.03;;;;;;;;;;5073423;28;20025;-91
2022/01/12 15:04:38;;;;;;;55.43;18.60;;;;;;;;;;5073279;28;20431;-91
2022/01/12 15:07:03;;;;;;;59.63;19.17;;;;;;;;;;5085823;28;20115;-90
2022/01/12 15:09:29;;;;;;;52.87;15.47;;;;;;;;;;5072639;28;20022;-90
2022/01/12 15:11:54;;;;;;;65.30;17.83;;;;;;;;;;5074011;28;20024;-90
2022/01/12 15:15:01;;;;;;;66.63;19.47;;;;;;;;;;5073739;28;20539;-90
2022/01/12 15:17:08;;;;;;;65.70;19.10;;;;;;;;;;5068956;28;20037;-91
2022/01/12 15:19:33;;;;;;;68.30;20.63;;;;;;;;;;5072848;28;20115;-90
2022/01/12 15:21:59;;;;;;;74.53;21.27;;;;;;;;;;5073237;28;20028;-91
2022/01/12 15:24:24;;;;;;;58.07;18.73;;;;;;;;;;5073509;28;20137;-91
2022/01/12 15:26:49;;;;;;;61.17;19.37;;;;;;;;;;5087516;28;20016;-91
2022/01/12 15:29:14;;;;;;;62.77;19.03;;;;;;;;;;5083092;28;20029;-91
2022/01/12 15:31:40;;;;;;;61.43;18.20;;;;;;;;;;5073319;28;20122;-91